createdAt,value
2018-10-02T00:02:11.827Z,2.13
2018-10-02T00:04:39.935Z,2.60
2018-10-02T00:07:08.017Z,2.40
2018-10-02T00:09:36.095Z,3.00
2018-10-02T00:12:09.686Z,1.98
2018-10-02T00:14:37.767Z,4.60
2018-10-02T00:17:05.823Z,2.50
2018-10-02T00:19:33.896Z,2.63
2018-10-02T00:22:01.974Z,2.30
2018-10-02T00:24:30.030Z,3.02
2018-10-02T00:26:58.094Z,1.90
2018-10-02T00:29:26.226Z,1.57
2018-10-02T00:31:54.376Z,2.00
2018-10-02T00:34:22.370Z,1.77
2018-10-02T00:36:50.438Z,2.03
2018-10-02T00:39:18.548Z,1.85
2018-10-02T00:41:46.634Z,1.87
2018-10-02T00:44:14.725Z,1.83
2018-10-02T00:46:42.805Z,2.83
2018-10-02T00:49:10.874Z,2.33
2018-10-02T00:51:38.959Z,2.00
2018-10-02T00:54:07.007Z,1.47
2018-10-02T00:56:35.069Z,1.90
2018-10-02T00:59:03.142Z,1.60
2018-10-02T01:01:31.254Z,1.73
2018-10-02T01:03:59.383Z,2.27
2018-10-02T01:06:27.447Z,1.97
2018-10-02T01:08:55.507Z,1.93
2018-10-02T01:11:23.579Z,1.80
2018-10-02T01:13:51.747Z,2.17
2018-10-02T01:16:19.821Z,2.87
2018-10-02T01:18:47.909Z,2.50
2018-10-02T01:21:15.973Z,2.83
2018-10-02T01:23:44.063Z,2.62
2018-10-02T01:26:12.136Z,2.27
2018-10-02T01:28:40.198Z,1.87
2018-10-02T01:31:08.289Z,2.27
2018-10-02T01:33:36.388Z,1.40
2018-10-02T01:36:05.278Z,1.83
2018-10-02T01:38:33.365Z,2.07
2018-10-02T01:41:01.421Z,2.27
2018-10-02T01:43:29.519Z,2.27
2018-10-02T01:45:57.586Z,2.30
2018-10-02T01:48:25.666Z,2.07
2018-10-02T01:50:53.723Z,1.83
2018-10-02T01:53:21.827Z,2.50
2018-10-02T01:55:49.890Z,1.93
2018-10-02T01:58:17.968Z,3.10
2018-10-02T02:00:46.059Z,2.00
2018-10-02T02:03:14.154Z,2.22
2018-10-02T02:05:42.286Z,1.95
2018-10-02T02:08:10.359Z,2.72
2018-10-02T02:10:38.430Z,2.42
2018-10-02T02:13:06.507Z,2.30
2018-10-02T02:15:34.571Z,2.12
2018-10-02T02:18:03.300Z,2.13
2018-10-02T02:20:31.405Z,1.60
2018-10-02T02:22:59.459Z,2.07
2018-10-02T02:25:27.539Z,1.60
2018-10-02T02:27:55.635Z,1.67
2018-10-02T02:30:23.704Z,1.60
2018-10-02T02:32:51.827Z,2.20
2018-10-02T02:35:19.878Z,2.50
2018-10-02T02:37:47.967Z,2.70
2018-10-02T02:40:16.332Z,2.60
2018-10-02T02:42:44.487Z,1.90
2018-10-02T02:45:12.575Z,1.70
2018-10-02T02:47:46.008Z,2.23
2018-10-02T02:50:19.418Z,1.70
2018-10-02T02:52:50.592Z,1.90
2018-10-02T02:55:18.679Z,2.83
2018-10-02T02:57:46.767Z,1.83
2018-10-02T03:00:14.862Z,2.83
2018-10-02T03:02:42.917Z,2.85
2018-10-02T03:05:10.957Z,2.07
2018-10-02T03:07:39.057Z,2.10
2018-10-02T03:10:07.140Z,2.65
2018-10-02T03:12:36.231Z,3.08
2018-10-02T03:15:04.387Z,2.15
2018-10-02T03:17:32.489Z,2.00
2018-10-02T03:20:00.570Z,2.65
2018-10-02T03:22:28.679Z,2.65
2018-10-02T03:24:56.767Z,3.50
2018-10-02T03:27:24.823Z,2.30
2018-10-02T03:29:52.904Z,2.15
2018-10-02T03:32:20.996Z,2.27
2018-10-02T03:34:49.079Z,2.90
2018-10-02T03:37:17.145Z,3.00
2018-10-02T03:39:45.327Z,2.83
2018-10-02T03:42:13.871Z,3.30
2018-10-02T03:44:42.022Z,2.30
2018-10-02T03:47:10.116Z,2.30
2018-10-02T03:49:38.187Z,2.17
2018-10-02T03:52:06.254Z,2.15
2018-10-02T03:54:34.288Z,2.87
2018-10-02T03:57:02.346Z,2.40
2018-10-02T03:59:30.408Z,3.53
2018-10-02T04:01:58.481Z,2.55
2018-10-02T04:04:26.535Z,2.80
2018-10-02T04:06:54.596Z,2.90
2018-10-02T04:09:22.642Z,2.43
2018-10-02T04:11:50.805Z,3.97
2018-10-02T04:14:18.876Z,2.70
2018-10-02T04:16:46.948Z,2.70
2018-10-02T04:19:15.010Z,2.83
2018-10-02T04:21:43.120Z,2.80
2018-10-02T04:24:11.174Z,3.20
2018-10-02T04:26:39.272Z,2.80
2018-10-02T04:29:07.751Z,3.10
2018-10-02T04:31:36.954Z,2.40
2018-10-02T04:34:05.293Z,3.02
2018-10-02T04:36:33.315Z,4.00
2018-10-02T04:39:01.410Z,2.50
2018-10-02T04:41:29.473Z,2.70
2018-10-02T04:43:57.539Z,2.70
2018-10-02T04:46:25.602Z,4.07
2018-10-02T04:48:53.659Z,3.80
2018-10-02T04:51:21.735Z,2.40
2018-10-02T04:53:49.785Z,3.12
2018-10-02T04:56:17.951Z,2.27
2018-10-02T04:58:45.935Z,3.40
2018-10-02T05:01:14.006Z,3.52
2018-10-02T05:03:42.946Z,3.35
2018-10-02T05:06:11.052Z,2.50
2018-10-02T05:08:39.148Z,3.05
2018-10-02T05:11:07.178Z,2.80
2018-10-02T05:13:35.366Z,3.00
2018-10-02T05:16:03.435Z,3.00
2018-10-02T05:18:31.495Z,3.27
2018-10-02T05:20:59.583Z,3.07
2018-10-02T05:23:27.664Z,2.40
2018-10-02T05:25:55.730Z,2.92
2018-10-02T05:28:23.803Z,3.02
2018-10-02T05:30:51.893Z,3.83
2018-10-02T05:33:20.015Z,2.93
2018-10-02T05:35:48.080Z,3.57
2018-10-02T05:38:16.163Z,2.53
2018-10-02T05:40:44.227Z,2.37
2018-10-02T05:43:12.309Z,2.90
2018-10-02T05:45:40.394Z,1.97
2018-10-02T05:48:08.520Z,3.00
2018-10-02T05:50:36.641Z,3.10
2018-10-02T05:53:04.663Z,2.50
2018-10-02T05:55:32.739Z,3.13
2018-10-02T05:58:00.809Z,2.70
2018-10-02T06:00:28.900Z,3.10
2018-10-02T06:02:57.012Z,2.50
2018-10-02T06:05:25.105Z,3.77
2018-10-02T06:07:53.350Z,3.13
2018-10-02T06:10:21.433Z,3.63
2018-10-02T06:12:49.519Z,3.43
2018-10-02T06:15:17.610Z,3.33
2018-10-02T06:17:45.721Z,2.93
2018-10-02T06:20:13.784Z,3.20
2018-10-02T06:22:41.883Z,3.70
2018-10-02T06:25:09.969Z,2.77
2018-10-02T06:27:38.078Z,2.72
2018-10-02T06:30:06.167Z,4.27
2018-10-02T06:32:34.295Z,2.58
2018-10-02T06:35:09.023Z,3.47
2018-10-02T06:37:37.111Z,2.60
2018-10-02T06:40:05.191Z,2.63
2018-10-02T06:42:33.317Z,2.60
2018-10-02T06:45:01.427Z,3.20
2018-10-02T06:47:29.490Z,3.70
2018-10-02T06:49:57.579Z,3.10
2018-10-02T06:52:25.949Z,2.90
2018-10-02T06:54:53.749Z,4.80
2018-10-02T06:57:21.881Z,3.45
2018-10-02T06:59:49.998Z,3.27
2018-10-02T07:02:18.087Z,3.67
2018-10-02T07:04:46.188Z,4.00
2018-10-02T07:07:14.289Z,3.85
2018-10-02T07:09:42.382Z,4.53
2018-10-02T07:12:10.476Z,4.23
2018-10-02T07:14:38.604Z,5.30
2018-10-02T07:17:07.029Z,4.33
2018-10-02T07:19:35.183Z,4.53
2018-10-02T07:22:03.251Z,3.93
2018-10-02T07:24:31.323Z,4.13
2018-10-02T07:26:59.474Z,3.33
2018-10-02T07:29:27.567Z,4.47
2018-10-02T07:31:55.703Z,3.70
2018-10-02T07:34:23.816Z,3.87
2018-10-02T07:36:51.901Z,3.93
2018-10-02T07:39:20.032Z,3.87
2018-10-02T07:41:48.120Z,4.13
2018-10-02T07:44:16.173Z,3.13
2018-10-02T07:46:44.354Z,3.10
2018-10-02T07:49:12.451Z,3.57
2018-10-02T07:51:40.538Z,2.97
2018-10-02T07:54:08.895Z,3.23
2018-10-02T07:56:37.021Z,3.50
2018-10-02T07:59:05.482Z,2.93
2018-10-02T08:01:33.640Z,3.03
2018-10-02T08:04:01.731Z,2.87
2018-10-02T08:06:29.812Z,2.80
2018-10-02T08:08:57.929Z,2.90
2018-10-02T08:11:26.074Z,3.63
2018-10-02T08:13:54.124Z,2.90
2018-10-02T08:16:22.234Z,3.20
2018-10-02T08:18:50.275Z,3.27
2018-10-02T08:21:18.376Z,3.83
2018-10-02T08:23:46.486Z,3.30
2018-10-02T08:26:14.556Z,4.10
2018-10-02T08:28:42.650Z,4.23
2018-10-02T08:31:10.767Z,5.13
2018-10-02T08:33:38.858Z,4.77
2018-10-02T08:36:07.079Z,5.60
2018-10-02T08:38:35.051Z,5.20
2018-10-02T08:41:03.117Z,5.40
2018-10-02T08:43:31.242Z,4.80
2018-10-02T08:45:59.280Z,5.30
2018-10-02T08:48:27.371Z,5.90
2018-10-02T08:50:55.517Z,7.07
2018-10-02T08:53:24.402Z,6.12
2018-10-02T08:55:54.546Z,7.20
2018-10-02T08:58:22.643Z,7.85
2018-10-02T09:00:50.732Z,8.93
2018-10-02T09:03:18.934Z,9.00
2018-10-02T09:05:46.916Z,9.30
2018-10-02T09:08:15.017Z,10.23
2018-10-02T09:10:43.106Z,10.50
2018-10-02T09:14:15.556Z,10.13
2018-10-02T09:16:43.743Z,10.27
2018-10-02T09:19:11.678Z,11.57
2018-10-02T09:21:39.813Z,10.97
2018-10-02T09:24:07.871Z,12.28
2018-10-02T09:26:35.944Z,11.30
2018-10-02T09:29:04.018Z,11.40
2018-10-02T09:31:37.577Z,12.20
2018-10-02T09:34:11.095Z,12.20
2018-10-02T09:36:44.647Z,13.50
2018-10-02T09:39:18.062Z,14.63
2018-10-02T09:41:51.791Z,13.32
2018-10-02T09:44:19.897Z,14.38
2018-10-02T09:46:47.971Z,13.60
2018-10-02T09:49:16.076Z,14.65
2018-10-02T09:51:44.202Z,15.15
2018-10-02T09:54:12.211Z,14.70
2018-10-02T09:56:44.476Z,14.60
2018-10-02T09:59:13.753Z,16.20
2018-10-02T10:01:47.207Z,14.40
2018-10-02T10:04:15.918Z,14.47
2018-10-02T10:06:43.990Z,14.60
2018-10-02T10:09:12.612Z,13.60
2018-10-02T10:11:41.428Z,14.50
2018-10-02T10:14:09.790Z,14.27
2018-10-02T10:16:38.009Z,16.20
2018-10-02T10:19:06.211Z,15.80
2018-10-02T10:21:34.316Z,15.10
2018-10-02T10:24:02.468Z,15.03
2018-10-02T10:26:30.602Z,14.60
2018-10-02T10:28:58.741Z,15.90
2018-10-02T10:31:26.859Z,14.23
2018-10-02T10:33:54.940Z,17.17
2018-10-02T10:36:23.031Z,15.77
2018-10-02T10:38:51.120Z,16.10
2018-10-02T10:41:19.184Z,16.47
2018-10-02T10:43:47.263Z,16.05
2018-10-02T10:46:15.332Z,16.53
2018-10-02T10:48:43.410Z,16.90
2018-10-02T10:51:11.490Z,15.50
2018-10-02T10:53:39.616Z,15.07
2018-10-02T10:56:07.746Z,14.17
2018-10-02T10:58:35.830Z,16.20
2018-10-02T11:01:03.902Z,13.50
2018-10-02T11:03:32.016Z,13.10
2018-10-02T11:06:00.158Z,14.10
2018-10-02T11:08:28.226Z,14.60
2018-10-02T11:10:56.347Z,17.33
2018-10-02T11:13:24.423Z,14.23
2018-10-02T11:15:52.533Z,15.45
2018-10-02T11:18:20.626Z,15.23
2018-10-02T11:20:48.707Z,15.57
2018-10-02T11:23:16.771Z,17.48
2018-10-02T11:25:44.952Z,16.60
2018-10-02T11:28:14.689Z,18.25
2018-10-02T11:30:42.799Z,16.00
2018-10-02T11:33:10.918Z,17.20
2018-10-02T11:35:39.025Z,17.30
2018-10-02T11:38:07.141Z,16.80
2018-10-02T11:40:35.274Z,19.32
2018-10-02T11:43:03.399Z,19.63
2018-10-02T11:45:31.470Z,20.00
2018-10-02T11:47:59.556Z,20.43
2018-10-02T11:50:27.711Z,20.23
2018-10-02T11:52:55.812Z,20.77
2018-10-02T11:55:23.986Z,18.67
2018-10-02T11:57:52.045Z,18.30
2018-10-02T12:00:20.206Z,19.63
2018-10-02T12:02:48.264Z,16.23
2018-10-02T12:05:16.388Z,16.87
2018-10-02T12:07:44.509Z,17.95
2018-10-02T12:10:12.614Z,16.82
2018-10-02T12:12:40.743Z,16.70
2018-10-02T12:15:08.856Z,15.90
2018-10-02T12:17:36.961Z,17.83
2018-10-02T12:20:05.272Z,17.65
2018-10-02T12:22:33.383Z,18.63
2018-10-02T12:25:01.484Z,18.97
2018-10-02T12:27:29.614Z,19.30
2018-10-02T12:29:57.730Z,19.37
2018-10-02T12:32:25.791Z,21.60
2018-10-02T12:34:53.893Z,19.50
2018-10-02T12:37:22.108Z,20.45
2018-10-02T12:39:50.232Z,19.13
2018-10-02T12:42:18.323Z,20.47
2018-10-02T12:44:46.437Z,19.07
2018-10-02T12:47:14.561Z,21.33
2018-10-02T12:49:42.696Z,22.17
2018-10-02T12:52:10.825Z,21.20
2018-10-02T12:54:38.932Z,19.60
2018-10-02T12:57:07.065Z,18.77
2018-10-02T12:59:35.152Z,17.90
2018-10-02T13:02:03.231Z,18.00
2018-10-02T13:04:31.355Z,16.30
2018-10-02T13:06:59.445Z,16.50
2018-10-02T13:09:27.555Z,15.30
2018-10-02T13:11:55.656Z,16.80
2018-10-02T13:14:23.747Z,16.23
2018-10-02T13:16:51.835Z,16.55
2018-10-02T13:19:19.947Z,15.30
2018-10-02T13:21:48.054Z,17.40
2018-10-02T13:24:16.144Z,17.83
2018-10-02T13:26:44.247Z,18.37
2018-10-02T13:29:12.365Z,17.10
2018-10-02T13:31:40.447Z,19.02
2018-10-02T13:34:08.584Z,18.10
2018-10-02T13:36:36.684Z,18.98
2018-10-02T13:39:07.036Z,19.35
2018-10-02T13:41:35.140Z,19.07
2018-10-02T13:44:03.227Z,19.40
2018-10-02T13:46:31.325Z,17.90
2018-10-02T13:48:59.460Z,18.05
2018-10-02T13:51:27.542Z,18.02
2018-10-02T13:53:55.648Z,20.00
2018-10-02T13:56:23.764Z,19.32
2018-10-02T13:58:51.866Z,19.45
2018-10-02T14:01:20.051Z,20.48
2018-10-02T14:03:48.082Z,19.70
2018-10-02T14:06:16.208Z,19.67
2018-10-02T14:08:44.287Z,21.82
2018-10-02T14:11:12.402Z,21.40
2018-10-02T14:13:41.122Z,22.55
2018-10-02T14:16:09.268Z,21.30
2018-10-02T14:18:37.348Z,22.40
2018-10-02T14:21:05.436Z,21.67
2018-10-02T14:23:33.527Z,21.67
2018-10-02T14:26:01.706Z,21.67
2018-10-02T14:28:29.756Z,19.87
2018-10-02T14:30:57.879Z,20.07
2018-10-02T14:33:25.982Z,19.93
2018-10-02T14:35:54.083Z,18.47
2018-10-02T14:38:22.156Z,18.33
2018-10-02T14:40:50.234Z,18.70
2018-10-02T14:43:18.457Z,18.23
2018-10-02T14:45:46.479Z,19.60
2018-10-02T14:48:14.570Z,16.37
2018-10-02T14:50:42.679Z,15.77
2018-10-02T14:53:10.767Z,16.00
2018-10-02T14:55:39.079Z,16.30
2018-10-02T14:58:07.174Z,16.50
2018-10-02T15:00:35.735Z,14.90
2018-10-02T15:03:03.847Z,12.33
2018-10-02T15:05:31.926Z,13.67
2018-10-02T15:08:00.054Z,11.70
2018-10-02T15:10:28.179Z,10.77
2018-10-02T15:12:56.275Z,9.97
2018-10-02T15:15:24.375Z,10.17
2018-10-02T15:17:52.509Z,11.03
2018-10-02T15:20:20.611Z,8.30
2018-10-02T15:22:48.747Z,9.28
2018-10-02T15:25:16.859Z,8.73
2018-10-02T15:27:44.944Z,7.50
2018-10-02T15:30:13.044Z,8.80
2018-10-02T15:32:41.175Z,6.90
2018-10-02T15:35:09.249Z,6.90
2018-10-02T15:37:37.429Z,7.20
2018-10-02T15:40:05.403Z,5.80
2018-10-02T15:42:33.500Z,5.80
2018-10-02T15:45:01.612Z,5.73
2018-10-02T15:47:29.699Z,5.47
2018-10-02T15:49:57.832Z,5.20
2018-10-02T15:52:25.938Z,5.50
2018-10-02T15:54:54.015Z,5.50
2018-10-02T15:57:22.115Z,6.47
2018-10-02T15:59:50.173Z,5.33
2018-10-02T16:02:18.250Z,5.10
2018-10-02T16:04:46.352Z,5.37
2018-10-02T16:07:14.470Z,4.45
2018-10-02T16:09:42.588Z,6.03
2018-10-02T16:12:10.697Z,5.35
2018-10-02T16:14:38.815Z,5.53
2018-10-02T16:17:07.092Z,5.05
2018-10-02T16:19:35.171Z,5.30
2018-10-02T16:22:03.304Z,5.80
2018-10-02T16:24:31.367Z,5.30
2018-10-02T16:26:59.538Z,4.45
2018-10-02T16:29:27.647Z,4.78
2018-10-02T16:31:55.783Z,5.00
2018-10-02T16:34:23.920Z,5.33
2018-10-02T16:36:52.051Z,4.90
2018-10-02T16:39:20.179Z,3.97
2018-10-02T16:41:48.315Z,5.00
2018-10-02T16:44:16.380Z,4.90
2018-10-02T16:46:44.484Z,5.03
2018-10-02T16:49:12.547Z,4.78
2018-10-02T16:51:40.618Z,4.15
2018-10-02T16:54:08.718Z,4.10
2018-10-02T16:56:36.831Z,4.28
2018-10-02T16:59:05.043Z,5.03
2018-10-02T17:01:33.368Z,4.43
2018-10-02T17:04:01.483Z,4.95
2018-10-02T17:06:29.912Z,4.62
2018-10-02T17:08:57.974Z,4.57
2018-10-02T17:11:26.059Z,4.47
2018-10-02T17:13:54.146Z,4.67
2018-10-02T17:16:22.305Z,4.63
2018-10-02T17:18:50.404Z,5.57
2018-10-02T17:21:19.013Z,6.62
2018-10-02T17:23:47.135Z,5.02
2018-10-02T17:26:15.245Z,4.07
2018-10-02T17:28:43.423Z,4.20
2018-10-02T17:31:11.427Z,6.00
2018-10-02T17:38:36.842Z,4.28
2018-10-02T17:41:05.172Z,4.43
2018-10-02T17:43:35.335Z,3.83
2018-10-02T17:46:03.447Z,4.90
2018-10-02T17:48:33.467Z,5.20
2018-10-02T17:51:01.786Z,4.17
2018-10-02T17:53:35.573Z,4.60
2018-10-02T17:56:07.248Z,4.60
2018-10-02T17:58:39.499Z,3.80
2018-10-02T18:01:08.353Z,4.67
2018-10-02T18:03:38.686Z,4.33
2018-10-02T18:06:06.898Z,4.73
2018-10-02T18:08:35.084Z,5.27
2018-10-02T18:11:03.297Z,4.33
2018-10-02T18:13:31.394Z,4.43
2018-10-02T18:15:59.553Z,4.20
2018-10-02T18:18:27.663Z,4.42
2018-10-02T18:20:55.790Z,3.60
2018-10-02T18:23:23.948Z,4.10
2018-10-02T18:25:52.171Z,5.20
2018-10-02T18:28:20.326Z,4.57
2018-10-02T18:30:48.517Z,4.00
2018-10-02T18:33:16.846Z,3.97
2018-10-02T18:35:44.976Z,4.70
2018-10-02T18:38:13.152Z,3.80
2018-10-02T18:40:41.274Z,4.70
2018-10-02T18:43:09.397Z,5.53
2018-10-02T18:45:37.591Z,3.93
2018-10-02T18:48:05.675Z,4.50
2018-10-02T18:50:33.793Z,5.37
2018-10-02T18:53:01.894Z,3.60
2018-10-02T18:55:29.998Z,4.33
2018-10-02T18:57:58.052Z,4.60
2018-10-02T19:00:26.166Z,4.37
2018-10-02T19:02:54.404Z,4.20
2018-10-02T19:05:22.489Z,4.37
2018-10-02T19:07:50.563Z,4.22
2018-10-02T19:10:18.687Z,5.28
2018-10-02T19:12:46.741Z,4.97
2018-10-02T19:15:14.847Z,3.92
2018-10-02T19:17:42.985Z,4.10
2018-10-02T19:20:16.475Z,3.80
2018-10-02T19:22:44.559Z,3.10
2018-10-02T19:25:18.083Z,3.92
2018-10-02T19:27:46.147Z,4.07
2018-10-02T19:30:19.569Z,3.80
2018-10-02T19:32:47.633Z,3.27
2018-10-02T19:35:15.727Z,3.27
2018-10-02T19:37:49.177Z,4.27
2018-10-02T19:40:17.251Z,3.33
2018-10-02T19:42:45.336Z,3.62
2018-10-02T19:45:18.917Z,3.40
2018-10-02T19:47:46.995Z,5.23
2018-10-02T19:50:15.078Z,4.40
2018-10-02T19:52:43.147Z,4.17
2018-10-02T19:55:11.271Z,3.97
2018-10-02T19:57:39.342Z,3.97
2018-10-02T20:00:07.772Z,3.33
2018-10-02T20:02:35.847Z,3.57
2018-10-02T20:05:03.929Z,3.33
2018-10-02T20:07:32.051Z,4.40
2018-10-02T20:10:00.084Z,3.60
2018-10-02T20:12:28.142Z,4.17
2018-10-02T20:14:56.233Z,4.40
2018-10-02T20:17:24.321Z,5.90
2018-10-02T20:19:52.436Z,3.50
2018-10-02T20:22:20.530Z,5.60
2018-10-02T20:24:48.619Z,4.40
2018-10-02T20:27:16.772Z,3.60
2018-10-02T20:29:44.833Z,3.83
2018-10-02T20:32:12.939Z,3.22
2018-10-02T20:34:41.059Z,4.50
2018-10-02T20:37:09.182Z,4.20
2018-10-02T20:39:37.279Z,3.93
2018-10-02T20:42:05.400Z,4.55
2018-10-02T20:44:33.511Z,5.33
2018-10-02T20:47:01.678Z,4.87
2018-10-02T20:49:29.786Z,4.70
2018-10-02T20:51:57.863Z,4.95
2018-10-02T20:54:25.970Z,4.62
2018-10-02T20:56:54.039Z,4.40
2018-10-02T20:59:22.192Z,6.40
2018-10-02T21:01:50.295Z,5.50
2018-10-02T21:04:18.415Z,4.77
2018-10-02T21:06:46.496Z,4.43
2018-10-02T21:09:14.583Z,4.62
2018-10-02T21:11:42.688Z,4.67
2018-10-02T21:14:10.818Z,4.40
2018-10-02T21:16:38.898Z,4.00
2018-10-02T21:19:07.020Z,5.28
2018-10-02T21:21:35.135Z,3.63
2018-10-02T21:24:03.466Z,4.57
2018-10-02T21:26:31.864Z,3.75
2018-10-02T21:29:00.609Z,3.73
2018-10-02T21:31:28.699Z,3.10
2018-10-02T21:33:56.831Z,3.85
2018-10-02T21:36:24.971Z,4.67
2018-10-02T21:38:53.071Z,3.27
2018-10-02T21:41:21.215Z,3.30
2018-10-02T21:43:49.321Z,3.72
2018-10-02T21:46:17.427Z,3.13
2018-10-02T21:48:45.621Z,3.40
2018-10-02T21:51:13.723Z,3.50
2018-10-02T21:53:42.732Z,3.50
2018-10-02T21:56:10.826Z,3.53
2018-10-02T21:58:38.990Z,4.37
2018-10-02T22:01:07.092Z,3.20
2018-10-02T22:03:37.333Z,3.60
2018-10-02T22:06:05.411Z,4.03
2018-10-02T22:08:33.567Z,2.83
2018-10-02T22:11:01.652Z,3.03
2018-10-02T22:13:29.758Z,3.77
2018-10-02T22:15:58.150Z,3.17
2018-10-02T22:18:26.243Z,3.60
2018-10-02T22:20:54.347Z,3.55
2018-10-02T22:23:22.462Z,2.95
2018-10-02T22:25:50.572Z,3.20
2018-10-02T22:28:18.676Z,3.05
2018-10-02T22:30:46.759Z,3.02
2018-10-02T22:33:14.943Z,2.95
2018-10-02T22:35:42.967Z,4.27
2018-10-02T22:38:11.088Z,3.58
2018-10-02T22:40:39.206Z,3.02
2018-10-02T22:43:07.287Z,3.47
2018-10-02T22:45:35.373Z,2.90
2018-10-02T22:48:03.525Z,3.47
2018-10-02T22:50:31.780Z,3.80
2018-10-02T22:52:59.922Z,2.92
2018-10-02T22:55:28.023Z,3.00
2018-10-02T22:57:56.119Z,3.17
2018-10-02T23:00:24.420Z,3.20
2018-10-02T23:02:52.524Z,3.40
2018-10-02T23:05:20.647Z,2.90
2018-10-02T23:07:48.767Z,4.42
2018-10-02T23:10:16.908Z,3.40
2018-10-02T23:12:44.991Z,3.30
2018-10-02T23:15:13.120Z,2.92
2018-10-02T23:17:41.236Z,3.60
2018-10-02T23:20:09.383Z,3.47
2018-10-02T23:22:37.467Z,2.47
2018-10-02T23:25:05.580Z,2.47
2018-10-02T23:27:33.637Z,3.25
2018-10-02T23:30:01.770Z,3.92
2018-10-02T23:32:29.899Z,3.52
2018-10-02T23:34:58.000Z,3.77
2018-10-02T23:37:26.100Z,3.30
2018-10-02T23:39:54.215Z,2.98
2018-10-02T23:42:22.351Z,3.42
2018-10-02T23:44:50.457Z,3.10
2018-10-02T23:47:18.543Z,4.12
2018-10-02T23:49:46.648Z,4.08
2018-10-02T23:52:14.768Z,4.58
2018-10-02T23:54:42.859Z,4.43
2018-10-02T23:57:10.986Z,4.37
2018-10-02T23:59:39.031Z,4.05
